LIPQ/TRS METAR and TAF weather

Enter ICAO airport designator
Station Type Date Time Source
LIPQ METAR 2019/10/14 05:50 UTC NOAA

LIPQ 140550Z 03002KT 4000 BR BKN030 12/12 Q1022


Station Type Date Time Source
LIPQ Decoded METAR 2019/10/14 05:50 UTC NOAA

Ronchi Dei Legionari, Italy (LIPQ) 45-49N 013-29E 12M
Oct 14, 2019 - 01:50 AM EDT / 2019.10.14 0550 UTC
Wind: from the NNE (030 degrees) at 2 MPH (2 KT):0
Visibility: 2 mile(s):0
Sky conditions: mostly cloudy
Weather: mist
Temperature: 53 F (12 C)
Dew Point: 53 F (12 C)
Relative Humidity: 100%
Pressure (altimeter): 30.18 in. Hg (1022 hPa)
ob: LIPQ 140550Z 03002KT 4000 BR BKN030 12/12 Q1022
cycle: 6

Station Type Date Time Source
LIPQ TAF 2019/10/14 06:24 UTC NOAA

TAF LIPQ 140500Z 1406/1506 VRB05KT 4000 BR SCT030
TEMPO 1406/1409 2000
BECMG 1409/1411 7000

Example: see airport list